Terminal Aerodrome Forecast
Issued by NWS Lake Charles, LA

Home | Current Version | Previous Version | Text Only | Print | Product List | Glossary On
Versions: 1 2 3 4 5 6 7 8 9 10 11 12 13 14 15 16 17 18 19 20 21 22 23 24 25 26 27 28 29 30 31
000
FTUS44 KLCH 221900 AAA
TAFLFT
TAF AMD
KLFT 221906Z 2219/2318 21011G15KT P6SM SCT025 BKN035
     FM230100 22008KT 6SM BR SCT010 OVC025
     FM230500 23007KT 3SM BR SCT002 OVC004
     FM230900 05003KT 3/4SM BR VV002
      TEMPO 2309/2313 1/2SM FG VV002=

USA.gov is the U.S. government's official web portal to all federal, state and local government web resources and services.